sensor_id;sensor_type;location;lat;lon;timestamp;temperature;humidity
38090;DHT22;23904;52.322;10.232;2022-11-11T00:01:06;10.00;99.90
38090;DHT22;23904;52.322;10.232;2022-11-11T00:03:34;10.00;99.90
38090;DHT22;23904;52.322;10.232;2022-11-11T00:06:09;10.00;99.90
38090;DHT22;23904;52.322;10.232;2022-11-11T00:08:39;9.90;99.90
38090;DHT22;23904;52.322;10.232;2022-11-11T00:11:09;9.90;99.90
38090;DHT22;23904;52.322;10.232;2022-11-11T00:13:37;9.90;99.90
38090;DHT22;23904;52.322;10.232;2022-11-11T00:16:15;9.80;99.90
38090;DHT22;23904;52.322;10.232;2022-11-11T00:18:42;9.90;99.90
38090;DHT22;23904;52.322;10.232;2022-11-11T00:21:27;9.80;99.90
38090;DHT22;23904;52.322;10.232;2022-11-11T00:27:05;9.80;99.90
38090;DHT22;23904;52.322;10.232;2022-11-11T00:29:31;9.80;99.90
38090;DHT22;23904;52.322;10.232;2022-11-11T00:31:57;9.80;99.90
38090;DHT22;23904;52.322;10.232;2022-11-11T00:34:41;9.80;99.90
38090;DHT22;23904;52.322;10.232;2022-11-11T00:37:26;9.70;99.90
38090;DHT22;23904;52.322;10.232;2022-11-11T00:39:52;9.70;99.90
38090;DHT22;23904;52.322;10.232;2022-11-11T00:42:17;9.70;99.90
38090;DHT22;23904;52.322;10.232;2022-11-11T00:44:43;9.70;99.90
38090;DHT22;23904;52.322;10.232;2022-11-11T00:47:09;9.70;99.90
38090;DHT22;23904;52.322;10.232;2022-11-11T00:49:54;9.70;99.90
38090;DHT22;23904;52.322;10.232;2022-11-11T00:52:38;9.70;99.90
38090;DHT22;23904;52.322;10.232;2022-11-11T00:55:04;9.70;99.90
38090;DHT22;23904;52.322;10.232;2022-11-11T00:57:30;9.70;99.90
38090;DHT22;23904;52.322;10.232;2022-11-11T00:59:56;9.60;99.90
38090;DHT22;23904;52.322;10.232;2022-11-11T01:02:22;9.60;99.90
38090;DHT22;23904;52.322;10.232;2022-11-11T01:04:48;9.60;99.90
38090;DHT22;23904;52.322;10.232;2022-11-11T01:07:13;9.60;99.90
38090;DHT22;23904;52.322;10.232;2022-11-11T01:09:43;9.60;99.90
38090;DHT22;23904;52.322;10.232;2022-11-11T01:12:08;9.60;99.90
38090;DHT22;23904;52.322;10.232;2022-11-11T01:14:34;9.60;99.90
38090;DHT22;23904;52.322;10.232;2022-11-11T01:17:00;9.60;99.90
38090;DHT22;23904;52.322;10.232;2022-11-11T01:19:25;9.60;99.90
38090;DHT22;23904;52.322;10.232;2022-11-11T01:21:51;9.60;99.90
38090;DHT22;23904;52.322;10.232;2022-11-11T01:24:17;9.60;99.90
38090;DHT22;23904;52.322;10.232;2022-11-11T01:26:42;9.50;99.90
38090;DHT22;23904;52.322;10.232;2022-11-11T01:29:08;9.50;99.90
38090;DHT22;23904;52.322;10.232;2022-11-11T01:31:33;9.50;99.90
38090;DHT22;23904;52.322;10.232;2022-11-11T01:33:59;9.60;99.90
38090;DHT22;23904;52.322;10.232;2022-11-11T01:36:26;9.50;99.90
38090;DHT22;23904;52.322;10.232;2022-11-11T01:38:54;9.50;99.90
38090;DHT22;23904;52.322;10.232;2022-11-11T01:41:24;9.50;99.90
38090;DHT22;23904;52.322;10.232;2022-11-11T01:43:57;9.50;99.90
38090;DHT22;23904;52.322;10.232;2022-11-11T01:46:39;9.40;99.90
38090;DHT22;23904;52.322;10.232;2022-11-11T01:49:29;9.40;99.90
38090;DHT22;23904;52.322;10.232;2022-11-11T01:54:58;9.40;99.90
38090;DHT22;23904;52.322;10.232;2022-11-11T01:57:31;9.30;99.90
38090;DHT22;23904;52.322;10.232;2022-11-11T02:00:08;9.30;99.90
38090;DHT22;23904;52.322;10.232;2022-11-11T02:02:43;9.30;99.90
38090;DHT22;23904;52.322;10.232;2022-11-11T02:05:14;9.30;99.90
38090;DHT22;23904;52.322;10.232;2022-11-11T02:08:06;9.30;99.90
38090;DHT22;23904;52.322;10.232;2022-11-11T02:10:34;9.20;99.90
38090;DHT22;23904;52.322;10.232;2022-11-11T02:13:00;9.20;99.90
38090;DHT22;23904;52.322;10.232;2022-11-11T02:15:44;9.10;99.90
38090;DHT22;23904;52.322;10.232;2022-11-11T02:18:10;9.10;99.90
38090;DHT22;23904;52.322;10.232;2022-11-11T02:20:38;9.20;99.90
38090;DHT22;23904;52.322;10.232;2022-11-11T02:23:15;9.20;99.90
38090;DHT22;23904;52.322;10.232;2022-11-11T02:25:50;9.10;99.90
38090;DHT22;23904;52.322;10.232;2022-11-11T02:28:18;9.10;99.90
38090;DHT22;23904;52.322;10.232;2022-11-11T02:30:45;9.10;99.90
38090;DHT22;23904;52.322;10.232;2022-11-11T02:33:11;9.10;99.90
38090;DHT22;23904;52.322;10.232;2022-11-11T02:35:39;9.10;99.90
38090;DHT22;23904;52.322;10.232;2022-11-11T02:38:10;9.10;99.90
38090;DHT22;23904;52.322;10.232;2022-11-11T02:43:26;9.10;99.90
38090;DHT22;23904;52.322;10.232;2022-11-11T02:45:52;9.10;99.90
38090;DHT22;23904;52.322;10.232;2022-11-11T02:48:18;9.10;99.90
38090;DHT22;23904;52.322;10.232;2022-11-11T02:50:43;9.10;99.90
38090;DHT22;23904;52.322;10.232;2022-11-11T02:53:09;9.10;99.90
38090;DHT22;23904;52.322;10.232;2022-11-11T02:55:35;9.10;99.90
38090;DHT22;23904;52.322;10.232;2022-11-11T02:58:00;9.10;99.90
38090;DHT22;23904;52.322;10.232;2022-11-11T03:00:26;9.10;99.90
38090;DHT22;23904;52.322;10.232;2022-11-11T03:02:52;9.10;99.90
38090;DHT22;23904;52.322;10.232;2022-11-11T03:05:18;9.00;99.90
38090;DHT22;23904;52.322;10.232;2022-11-11T03:07:43;9.00;99.90
38090;DHT22;23904;52.322;10.232;2022-11-11T03:10:09;9.00;99.90
38090;DHT22;23904;52.322;10.232;2022-11-11T03:12:35;9.00;99.90
38090;DHT22;23904;52.322;10.232;2022-11-11T03:15:01;9.00;99.90
38090;DHT22;23904;52.322;10.232;2022-11-11T03:17:27;9.00;99.90
38090;DHT22;23904;52.322;10.232;2022-11-11T03:20:09;9.00;99.90
38090;DHT22;23904;52.322;10.232;2022-11-11T03:23:11;8.90;99.90
38090;DHT22;23904;52.322;10.232;2022-11-11T03:25:43;8.90;99.90
38090;DHT22;23904;52.322;10.232;2022-11-11T03:28:17;9.00;99.90
38090;DHT22;23904;52.322;10.232;2022-11-11T03:30:46;9.00;99.90
38090;DHT22;23904;52.322;10.232;2022-11-11T03:33:13;9.00;99.90
38090;DHT22;23904;52.322;10.232;2022-11-11T03:35:40;8.90;99.90
38090;DHT22;23904;52.322;10.232;2022-11-11T03:38:08;9.00;99.90
38090;DHT22;23904;52.322;10.232;2022-11-11T03:40:52;9.00;99.90
38090;DHT22;23904;52.322;10.232;2022-11-11T03:43:21;9.00;99.90
38090;DHT22;23904;52.322;10.232;2022-11-11T03:45:48;9.00;99.90
38090;DHT22;23904;52.322;10.232;2022-11-11T03:48:15;9.10;99.90
38090;DHT22;23904;52.322;10.232;2022-11-11T03:50:41;9.10;99.90
38090;DHT22;23904;52.322;10.232;2022-11-11T03:53:06;9.00;99.90
38090;DHT22;23904;52.322;10.232;2022-11-11T03:55:32;9.00;99.90
38090;DHT22;23904;52.322;10.232;2022-11-11T03:57:58;9.00;99.90
38090;DHT22;23904;52.322;10.232;2022-11-11T04:00:26;9.00;99.90
38090;DHT22;23904;52.322;10.232;2022-11-11T04:05:57;9.10;99.90
38090;DHT22;23904;52.322;10.232;2022-11-11T04:08:41;9.10;99.90
38090;DHT22;23904;52.322;10.232;2022-11-11T04:11:30;9.10;99.90
38090;DHT22;23904;52.322;10.232;2022-11-11T04:14:03;9.10;99.90
38090;DHT22;23904;52.322;10.232;2022-11-11T04:16:52;9.10;99.90
38090;DHT22;23904;52.322;10.232;2022-11-11T04:19:17;9.10;99.90
38090;DHT22;23904;52.322;10.232;2022-11-11T04:22:02;9.20;99.90
38090;DHT22;23904;52.322;10.232;2022-11-11T04:24:28;9.20;99.90
38090;DHT22;23904;52.322;10.232;2022-11-11T04:27:13;9.20;99.90
38090;DHT22;23904;52.322;10.232;2022-11-11T04:29:41;9.20;99.90
38090;DHT22;23904;52.322;10.232;2022-11-11T04:32:08;9.20;99.90
38090;DHT22;23904;52.322;10.232;2022-11-11T04:34:59;9.20;99.90
38090;DHT22;23904;52.322;10.232;2022-11-11T04:37:27;9.20;99.90
38090;DHT22;23904;52.322;10.232;2022-11-11T04:39:55;9.20;99.90
38090;DHT22;23904;52.322;10.232;2022-11-11T04:42:39;9.30;99.90
38090;DHT22;23904;52.322;10.232;2022-11-11T04:45:07;9.20;99.90
38090;DHT22;23904;52.322;10.232;2022-11-11T04:48:19;9.20;99.90
38090;DHT22;23904;52.322;10.232;2022-11-11T04:50:45;9.20;99.90
38090;DHT22;23904;52.322;10.232;2022-11-11T04:53:12;9.20;99.90
38090;DHT22;23904;52.322;10.232;2022-11-11T04:55:40;9.20;99.90
38090;DHT22;23904;52.322;10.232;2022-11-11T04:58:28;9.20;99.90
38090;DHT22;23904;52.322;10.232;2022-11-11T05:00:55;9.20;99.90
38090;DHT22;23904;52.322;10.232;2022-11-11T05:03:20;9.20;99.90
38090;DHT22;23904;52.322;10.232;2022-11-11T05:05:57;9.20;99.90
38090;DHT22;23904;52.322;10.232;2022-11-11T05:08:43;9.20;99.90
38090;DHT22;23904;52.322;10.232;2022-11-11T05:11:49;9.20;99.90
38090;DHT22;23904;52.322;10.232;2022-11-11T05:14:15;9.20;99.90
38090;DHT22;23904;52.322;10.232;2022-11-11T05:16:59;9.20;99.90
38090;DHT22;23904;52.322;10.232;2022-11-11T05:19:43;9.10;99.90
38090;DHT22;23904;52.322;10.232;2022-11-11T05:22:36;9.10;99.90
38090;DHT22;23904;52.322;10.232;2022-11-11T05:25:04;9.10;99.90
38090;DHT22;23904;52.322;10.232;2022-11-11T05:27:49;9.10;99.90
38090;DHT22;23904;52.322;10.232;2022-11-11T05:30:16;9.10;99.90
38090;DHT22;23904;52.322;10.232;2022-11-11T05:32:42;9.00;99.90
38090;DHT22;23904;52.322;10.232;2022-11-11T05:35:09;9.00;99.90
38090;DHT22;23904;52.322;10.232;2022-11-11T05:37:36;9.00;99.90
38090;DHT22;23904;52.322;10.232;2022-11-11T05:40:02;8.90;99.90
38090;DHT22;23904;52.322;10.232;2022-11-11T05:42:28;9.00;99.90
38090;DHT22;23904;52.322;10.232;2022-11-11T05:44:54;9.00;99.90
38090;DHT22;23904;52.322;10.232;2022-11-11T05:47:20;8.90;99.90
38090;DHT22;23904;52.322;10.232;2022-11-11T05:49:45;8.90;99.90
38090;DHT22;23904;52.322;10.232;2022-11-11T05:52:12;8.90;99.90
38090;DHT22;23904;52.322;10.232;2022-11-11T05:54:40;8.90;99.90
38090;DHT22;23904;52.322;10.232;2022-11-11T05:57:07;8.80;99.90
38090;DHT22;23904;52.322;10.232;2022-11-11T05:59:33;8.90;99.90
38090;DHT22;23904;52.322;10.232;2022-11-11T06:01:58;8.90;99.90
38090;DHT22;23904;52.322;10.232;2022-11-11T06:04:24;8.80;99.90
38090;DHT22;23904;52.322;10.232;2022-11-11T06:06:50;8.80;99.90
38090;DHT22;23904;52.322;10.232;2022-11-11T06:09:16;8.80;99.90
38090;DHT22;23904;52.322;10.232;2022-11-11T06:11:41;8.80;99.90
38090;DHT22;23904;52.322;10.232;2022-11-11T06:14:07;8.80;99.90
38090;DHT22;23904;52.322;10.232;2022-11-11T06:16:33;8.70;99.90
38090;DHT22;23904;52.322;10.232;2022-11-11T06:18:59;8.70;99.90
38090;DHT22;23904;52.322;10.232;2022-11-11T06:21:25;8.70;99.90
38090;DHT22;23904;52.322;10.232;2022-11-11T06:23:51;8.70;99.90
38090;DHT22;23904;52.322;10.232;2022-11-11T06:26:17;8.70;99.90
38090;DHT22;23904;52.322;10.232;2022-11-11T06:31:13;8.60;99.90
38090;DHT22;23904;52.322;10.232;2022-11-11T06:33:46;8.70;99.90
38090;DHT22;23904;52.322;10.232;2022-11-11T06:36:13;8.70;99.90
38090;DHT22;23904;52.322;10.232;2022-11-11T06:38:41;8.70;99.90
38090;DHT22;23904;52.322;10.232;2022-11-11T06:41:09;8.70;99.90
38090;DHT22;23904;52.322;10.232;2022-11-11T06:43:37;8.70;99.90
38090;DHT22;23904;52.322;10.232;2022-11-11T06:46:07;8.70;99.90
38090;DHT22;23904;52.322;10.232;2022-11-11T06:48:40;8.70;99.90
38090;DHT22;23904;52.322;10.232;2022-11-11T06:51:10;8.70;99.90
38090;DHT22;23904;52.322;10.232;2022-11-11T06:53:36;8.70;99.90
38090;DHT22;23904;52.322;10.232;2022-11-11T06:56:01;8.70;99.90
38090;DHT22;23904;52.322;10.232;2022-11-11T06:58:27;8.60;99.90
38090;DHT22;23904;52.322;10.232;2022-11-11T07:00:53;8.60;99.90
38090;DHT22;23904;52.322;10.232;2022-11-11T07:03:19;8.60;99.90
38090;DHT22;23904;52.322;10.232;2022-11-11T07:05:46;8.60;99.90
38090;DHT22;23904;52.322;10.232;2022-11-11T07:08:15;8.60;99.90
38090;DHT22;23904;52.322;10.232;2022-11-11T07:10:47;8.70;99.90
38090;DHT22;23904;52.322;10.232;2022-11-11T07:13:14;8.60;99.90
38090;DHT22;23904;52.322;10.232;2022-11-11T07:15:42;8.60;99.90
38090;DHT22;23904;52.322;10.232;2022-11-11T07:18:08;8.70;99.90
38090;DHT22;23904;52.322;10.232;2022-11-11T07:20:35;8.70;99.90
38090;DHT22;23904;52.322;10.232;2022-11-11T07:23:01;8.70;99.90
38090;DHT22;23904;52.322;10.232;2022-11-11T07:25:28;8.80;99.90
38090;DHT22;23904;52.322;10.232;2022-11-11T07:27:53;8.90;99.90
38090;DHT22;23904;52.322;10.232;2022-11-11T07:30:19;9.00;99.90
38090;DHT22;23904;52.322;10.232;2022-11-11T07:32:50;9.00;99.90
38090;DHT22;23904;52.322;10.232;2022-11-11T07:35:17;9.10;99.90
38090;DHT22;23904;52.322;10.232;2022-11-11T07:37:44;9.10;99.90
38090;DHT22;23904;52.322;10.232;2022-11-11T07:40:12;9.20;99.90
38090;DHT22;23904;52.322;10.232;2022-11-11T07:42:39;9.20;99.90
38090;DHT22;23904;52.322;10.232;2022-11-11T07:45:07;9.30;99.90
38090;DHT22;23904;52.322;10.232;2022-11-11T07:47:33;9.30;99.90
38090;DHT22;23904;52.322;10.232;2022-11-11T07:50:00;9.30;99.90
38090;DHT22;23904;52.322;10.232;2022-11-11T07:52:26;9.30;99.90
38090;DHT22;23904;52.322;10.232;2022-11-11T07:54:52;9.40;99.90
38090;DHT22;23904;52.322;10.232;2022-11-11T07:57:17;9.40;99.90
38090;DHT22;23904;52.322;10.232;2022-11-11T07:59:43;9.50;99.90
38090;DHT22;23904;52.322;10.232;2022-11-11T08:02:13;9.50;99.90
38090;DHT22;23904;52.322;10.232;2022-11-11T08:04:38;9.50;99.90
38090;DHT22;23904;52.322;10.232;2022-11-11T08:07:04;9.50;99.90
38090;DHT22;23904;52.322;10.232;2022-11-11T08:09:30;9.50;99.90
38090;DHT22;23904;52.322;10.232;2022-11-11T08:11:56;9.60;99.90
38090;DHT22;23904;52.322;10.232;2022-11-11T08:14:40;9.70;99.90
38090;DHT22;23904;52.322;10.232;2022-11-11T08:17:06;9.70;99.90
38090;DHT22;23904;52.322;10.232;2022-11-11T08:19:31;9.80;99.90
38090;DHT22;23904;52.322;10.232;2022-11-11T08:21:57;9.90;99.90
38090;DHT22;23904;52.322;10.232;2022-11-11T08:24:23;9.90;99.90
38090;DHT22;23904;52.322;10.232;2022-11-11T08:26:49;9.80;99.90
38090;DHT22;23904;52.322;10.232;2022-11-11T08:29:14;9.90;99.90
38090;DHT22;23904;52.322;10.232;2022-11-11T08:31:40;10.00;99.90
38090;DHT22;23904;52.322;10.232;2022-11-11T08:34:06;10.10;99.90
38090;DHT22;23904;52.322;10.232;2022-11-11T08:36:32;10.20;99.90
38090;DHT22;23904;52.322;10.232;2022-11-11T08:38:57;10.20;99.90
38090;DHT22;23904;52.322;10.232;2022-11-11T08:41:23;10.30;99.90
38090;DHT22;23904;52.322;10.232;2022-11-11T08:43:53;10.30;99.90
38090;DHT22;23904;52.322;10.232;2022-11-11T08:46:20;10.40;99.90
38090;DHT22;23904;52.322;10.232;2022-11-11T08:48:46;10.50;99.90
38090;DHT22;23904;52.322;10.232;2022-11-11T08:51:13;10.60;99.90
38090;DHT22;23904;52.322;10.232;2022-11-11T08:53:39;10.70;99.90
38090;DHT22;23904;52.322;10.232;2022-11-11T08:56:06;10.70;99.90
38090;DHT22;23904;52.322;10.232;2022-11-11T08:58:32;10.80;99.90
38090;DHT22;23904;52.322;10.232;2022-11-11T09:00:57;11.00;99.90
38090;DHT22;23904;52.322;10.232;2022-11-11T09:03:23;11.00;99.90
38090;DHT22;23904;52.322;10.232;2022-11-11T09:05:49;11.20;99.90
38090;DHT22;23904;52.322;10.232;2022-11-11T09:08:15;11.20;99.90
38090;DHT22;23904;52.322;10.232;2022-11-11T09:10:41;11.40;99.90
38090;DHT22;23904;52.322;10.232;2022-11-11T09:13:07;11.50;99.90
38090;DHT22;23904;52.322;10.232;2022-11-11T09:15:33;11.70;99.90
38090;DHT22;23904;52.322;10.232;2022-11-11T09:17:59;11.80;99.90
38090;DHT22;23904;52.322;10.232;2022-11-11T09:20:26;12.00;99.90
38090;DHT22;23904;52.322;10.232;2022-11-11T09:22:52;12.10;99.90
38090;DHT22;23904;52.322;10.232;2022-11-11T09:25:18;12.40;99.90
38090;DHT22;23904;52.322;10.232;2022-11-11T09:27:56;12.70;99.90
38090;DHT22;23904;52.322;10.232;2022-11-11T09:30:23;12.90;99.90
38090;DHT22;23904;52.322;10.232;2022-11-11T09:32:50;13.50;99.90
38090;DHT22;23904;52.322;10.232;2022-11-11T09:35:16;13.90;99.90
38090;DHT22;23904;52.322;10.232;2022-11-11T09:37:41;14.40;99.90
38090;DHT22;23904;52.322;10.232;2022-11-11T09:40:15;14.80;99.90
38090;DHT22;23904;52.322;10.232;2022-11-11T09:46:14;16.60;99.90
38090;DHT22;23904;52.322;10.232;2022-11-11T09:54:47;19.80;95.70
38090;DHT22;23904;52.322;10.232;2022-11-11T09:57:34;21.00;93.30
38090;DHT22;23904;52.322;10.232;2022-11-11T10:00:23;21.90;91.50
38090;DHT22;23904;52.322;10.232;2022-11-11T10:05:58;22.10;90.00
38090;DHT22;23904;52.322;10.232;2022-11-11T10:08:29;21.90;88.30
38090;DHT22;23904;52.322;10.232;2022-11-11T10:11:00;21.20;89.70
38090;DHT22;23904;52.322;10.232;2022-11-11T10:13:45;20.70;90.50
38090;DHT22;23904;52.322;10.232;2022-11-11T10:16:33;19.60;92.10
38090;DHT22;23904;52.322;10.232;2022-11-11T10:21:50;18.00;94.80
38090;DHT22;23904;52.322;10.232;2022-11-11T10:24:40;16.70;97.00
38090;DHT22;23904;52.322;10.232;2022-11-11T10:27:15;16.40;98.00
38090;DHT22;23904;52.322;10.232;2022-11-11T10:29:43;15.80;98.80
38090;DHT22;23904;52.322;10.232;2022-11-11T10:32:39;15.20;99.00
38090;DHT22;23904;52.322;10.232;2022-11-11T10:35:17;14.70;99.30
38090;DHT22;23904;52.322;10.232;2022-11-11T10:37:45;14.50;99.90
38090;DHT22;23904;52.322;10.232;2022-11-11T10:40:24;14.40;99.90
38090;DHT22;23904;52.322;10.232;2022-11-11T10:42:54;14.30;99.90
38090;DHT22;23904;52.322;10.232;2022-11-11T10:45:38;14.30;99.90
38090;DHT22;23904;52.322;10.232;2022-11-11T10:48:12;14.30;99.90
38090;DHT22;23904;52.322;10.232;2022-11-11T10:50:56;14.30;99.90
38090;DHT22;23904;52.322;10.232;2022-11-11T10:53:42;14.30;99.90
38090;DHT22;23904;52.322;10.232;2022-11-11T10:56:35;14.30;99.90
38090;DHT22;23904;52.322;10.232;2022-11-11T10:59:18;14.40;99.90
38090;DHT22;23904;52.322;10.232;2022-11-11T11:01:51;14.50;99.90
38090;DHT22;23904;52.322;10.232;2022-11-11T11:07:09;14.60;99.90
38090;DHT22;23904;52.322;10.232;2022-11-11T11:09:42;14.60;99.90
38090;DHT22;23904;52.322;10.232;2022-11-11T11:12:16;14.90;99.90
38090;DHT22;23904;52.322;10.232;2022-11-11T11:14:47;15.10;99.90
38090;DHT22;23904;52.322;10.232;2022-11-11T11:17:23;15.40;99.90
38090;DHT22;23904;52.322;10.232;2022-11-11T11:20:14;15.60;99.10
38090;DHT22;23904;52.322;10.232;2022-11-11T11:22:45;15.70;99.20
38090;DHT22;23904;52.322;10.232;2022-11-11T11:25:25;16.10;98.10
38090;DHT22;23904;52.322;10.232;2022-11-11T11:28:10;16.10;98.50
38090;DHT22;23904;52.322;10.232;2022-11-11T11:30:37;16.20;98.60
38090;DHT22;23904;52.322;10.232;2022-11-11T11:33:06;16.20;98.30
38090;DHT22;23904;52.322;10.232;2022-11-11T11:35:36;16.40;99.00
38090;DHT22;23904;52.322;10.232;2022-11-11T11:38:05;16.70;99.10
38090;DHT22;23904;52.322;10.232;2022-11-11T11:40:55;16.80;98.60
38090;DHT22;23904;52.322;10.232;2022-11-11T11:43:38;17.30;97.70
38090;DHT22;23904;52.322;10.232;2022-11-11T11:46:18;17.70;97.20
38090;DHT22;23904;52.322;10.232;2022-11-11T11:55:17;19.50;94.70
38090;DHT22;23904;52.322;10.232;2022-11-11T12:00:27;21.40;90.90
38090;DHT22;23904;52.322;10.232;2022-11-11T12:03:02;21.20;90.70
38090;DHT22;23904;52.322;10.232;2022-11-11T12:09:03;21.00;90.10
38090;DHT22;23904;52.322;10.232;2022-11-11T12:11:41;20.60;90.70
38090;DHT22;23904;52.322;10.232;2022-11-11T12:30:32;18.60;93.50
38090;DHT22;23904;52.322;10.232;2022-11-11T12:39:01;16.80;96.30
38090;DHT22;23904;52.322;10.232;2022-11-11T12:50:54;16.10;97.30
38090;DHT22;23904;52.322;10.232;2022-11-11T12:59:39;16.50;97.50
38090;DHT22;23904;52.322;10.232;2022-11-11T13:05:21;17.10;96.50
38090;DHT22;23904;52.322;10.232;2022-11-11T13:08:05;17.40;96.30
38090;DHT22;23904;52.322;10.232;2022-11-11T13:16:38;17.70;96.00
38090;DHT22;23904;52.322;10.232;2022-11-11T13:22:05;17.50;95.60
38090;DHT22;23904;52.322;10.232;2022-11-11T13:24:35;17.20;95.90
38090;DHT22;23904;52.322;10.232;2022-11-11T13:27:15;16.80;96.30
38090;DHT22;23904;52.322;10.232;2022-11-11T13:32:58;16.80;96.70
38090;DHT22;23904;52.322;10.232;2022-11-11T13:37:55;16.60;96.90
38090;DHT22;23904;52.322;10.232;2022-11-11T13:40:35;16.50;97.30
38090;DHT22;23904;52.322;10.232;2022-11-11T13:43:05;16.40;97.60
38090;DHT22;23904;52.322;10.232;2022-11-11T13:45:41;16.20;97.70
38090;DHT22;23904;52.322;10.232;2022-11-11T13:48:26;16.00;97.20
38090;DHT22;23904;52.322;10.232;2022-11-11T13:51:10;15.80;97.30
38090;DHT22;23904;52.322;10.232;2022-11-11T13:53:46;15.70;97.80
38090;DHT22;23904;52.322;10.232;2022-11-11T13:56:22;15.60;98.30
38090;DHT22;23904;52.322;10.232;2022-11-11T13:59:05;15.50;98.80
38090;DHT22;23904;52.322;10.232;2022-11-11T14:01:36;15.40;98.70
38090;DHT22;23904;52.322;10.232;2022-11-11T14:04:07;15.30;98.90
38090;DHT22;23904;52.322;10.232;2022-11-11T14:06:36;15.30;97.90
38090;DHT22;23904;52.322;10.232;2022-11-11T14:09:51;15.30;98.50
38090;DHT22;23904;52.322;10.232;2022-11-11T14:12:33;15.30;98.40
38090;DHT22;23904;52.322;10.232;2022-11-11T14:15:03;15.30;98.90
38090;DHT22;23904;52.322;10.232;2022-11-11T14:17:33;15.20;99.30
38090;DHT22;23904;52.322;10.232;2022-11-11T14:22:59;15.10;99.80
38090;DHT22;23904;52.322;10.232;2022-11-11T14:25:39;15.10;99.90
38090;DHT22;23904;52.322;10.232;2022-11-11T14:28:28;15.00;99.90
38090;DHT22;23904;52.322;10.232;2022-11-11T14:49:52;14.50;99.90
38090;DHT22;23904;52.322;10.232;2022-11-11T14:57:37;14.40;99.90
38090;DHT22;23904;52.322;10.232;2022-11-11T15:00:09;14.30;99.90
38090;DHT22;23904;52.322;10.232;2022-11-11T15:02:50;14.20;99.90
38090;DHT22;23904;52.322;10.232;2022-11-11T15:08:25;14.10;99.90
38090;DHT22;23904;52.322;10.232;2022-11-11T15:14:00;14.00;99.90
38090;DHT22;23904;52.322;10.232;2022-11-11T15:19:55;13.90;99.90
38090;DHT22;23904;52.322;10.232;2022-11-11T15:37:18;13.30;99.90
38090;DHT22;23904;52.322;10.232;2022-11-11T15:39:50;13.20;99.90
38090;DHT22;23904;52.322;10.232;2022-11-11T15:45:00;13.10;99.90
38090;DHT22;23904;52.322;10.232;2022-11-11T15:47:29;13.00;99.90
38090;DHT22;23904;52.322;10.232;2022-11-11T15:50:00;13.00;99.90
38090;DHT22;23904;52.322;10.232;2022-11-11T15:54:55;12.90;99.90
38090;DHT22;23904;52.322;10.232;2022-11-11T15:57:23;12.80;99.90
38090;DHT22;23904;52.322;10.232;2022-11-11T15:59:52;12.80;99.90
38090;DHT22;23904;52.322;10.232;2022-11-11T16:02:23;12.80;99.90
38090;DHT22;23904;52.322;10.232;2022-11-11T16:05:02;12.70;99.90
38090;DHT22;23904;52.322;10.232;2022-11-11T16:07:36;12.70;99.90
38090;DHT22;23904;52.322;10.232;2022-11-11T16:10:35;12.60;99.90
38090;DHT22;23904;52.322;10.232;2022-11-11T16:13:20;12.60;99.90
38090;DHT22;23904;52.322;10.232;2022-11-11T16:16:00;12.60;99.90
38090;DHT22;23904;52.322;10.232;2022-11-11T16:18:32;12.60;99.90
38090;DHT22;23904;52.322;10.232;2022-11-11T16:21:13;12.50;99.90
38090;DHT22;23904;52.322;10.232;2022-11-11T16:23:42;12.50;99.90
38090;DHT22;23904;52.322;10.232;2022-11-11T16:26:08;12.40;99.90
38090;DHT22;23904;52.322;10.232;2022-11-11T16:28:52;12.40;99.90
38090;DHT22;23904;52.322;10.232;2022-11-11T16:34:00;12.20;99.90
38090;DHT22;23904;52.322;10.232;2022-11-11T16:37:08;12.20;99.90
38090;DHT22;23904;52.322;10.232;2022-11-11T16:39:35;12.20;99.90
38090;DHT22;23904;52.322;10.232;2022-11-11T16:42:15;12.20;99.90
38090;DHT22;23904;52.322;10.232;2022-11-11T16:50:16;12.10;99.90
38090;DHT22;23904;52.322;10.232;2022-11-11T16:52:51;12.10;99.90
38090;DHT22;23904;52.322;10.232;2022-11-11T16:58:21;11.90;99.90
38090;DHT22;23904;52.322;10.232;2022-11-11T17:00:47;11.90;99.90
38090;DHT22;23904;52.322;10.232;2022-11-11T17:03:19;11.90;99.90
38090;DHT22;23904;52.322;10.232;2022-11-11T17:08:39;11.80;99.90
38090;DHT22;23904;52.322;10.232;2022-11-11T17:11:08;11.80;99.90
38090;DHT22;23904;52.322;10.232;2022-11-11T17:13:35;11.70;99.90
38090;DHT22;23904;52.322;10.232;2022-11-11T17:16:04;11.70;99.90
38090;DHT22;23904;52.322;10.232;2022-11-11T17:18:38;11.70;99.90
38090;DHT22;23904;52.322;10.232;2022-11-11T17:21:05;11.60;99.90
38090;DHT22;23904;52.322;10.232;2022-11-11T17:23:31;11.60;99.90
38090;DHT22;23904;52.322;10.232;2022-11-11T17:25:58;11.60;99.90
38090;DHT22;23904;52.322;10.232;2022-11-11T17:28:26;11.50;99.90
38090;DHT22;23904;52.322;10.232;2022-11-11T17:30:55;11.50;99.90
38090;DHT22;23904;52.322;10.232;2022-11-11T17:33:25;11.50;99.90
38090;DHT22;23904;52.322;10.232;2022-11-11T17:35:51;11.50;99.90
38090;DHT22;23904;52.322;10.232;2022-11-11T17:38:18;11.50;99.90
38090;DHT22;23904;52.322;10.232;2022-11-11T17:40:45;11.50;99.90
38090;DHT22;23904;52.322;10.232;2022-11-11T17:43:12;11.40;99.90
38090;DHT22;23904;52.322;10.232;2022-11-11T17:45:38;11.40;99.90
38090;DHT22;23904;52.322;10.232;2022-11-11T17:48:05;11.40;99.90
38090;DHT22;23904;52.322;10.232;2022-11-11T17:50:31;11.30;99.90
38090;DHT22;23904;52.322;10.232;2022-11-11T17:52:56;11.30;99.90
38090;DHT22;23904;52.322;10.232;2022-11-11T17:55:23;11.40;99.90
38090;DHT22;23904;52.322;10.232;2022-11-11T17:57:48;11.30;99.90
38090;DHT22;23904;52.322;10.232;2022-11-11T18:00:15;11.30;99.90
38090;DHT22;23904;52.322;10.232;2022-11-11T18:02:42;11.30;99.90
38090;DHT22;23904;52.322;10.232;2022-11-11T18:05:08;11.30;99.90
38090;DHT22;23904;52.322;10.232;2022-11-11T18:07:34;11.20;99.90
38090;DHT22;23904;52.322;10.232;2022-11-11T18:10:00;11.30;99.90
38090;DHT22;23904;52.322;10.232;2022-11-11T18:12:27;11.20;99.90
38090;DHT22;23904;52.322;10.232;2022-11-11T18:14:53;11.20;99.90
38090;DHT22;23904;52.322;10.232;2022-11-11T18:17:19;11.20;99.90
38090;DHT22;23904;52.322;10.232;2022-11-11T18:19:45;11.20;99.90
38090;DHT22;23904;52.322;10.232;2022-11-11T18:22:10;11.20;99.90
38090;DHT22;23904;52.322;10.232;2022-11-11T18:24:37;11.20;99.90
38090;DHT22;23904;52.322;10.232;2022-11-11T18:27:02;11.20;99.90
38090;DHT22;23904;52.322;10.232;2022-11-11T18:29:28;11.30;99.90
38090;DHT22;23904;52.322;10.232;2022-11-11T18:31:55;11.20;99.90
38090;DHT22;23904;52.322;10.232;2022-11-11T18:34:21;11.30;99.90
38090;DHT22;23904;52.322;10.232;2022-11-11T18:36:47;11.30;99.90
38090;DHT22;23904;52.322;10.232;2022-11-11T18:39:12;11.30;99.90